VLG1466 LEBB-LFPG
Flight info
| Callsign | VLG1466 |
|---|---|
| Flight time | 1h 14m |
| Altitude | 34000 |
| Route | SSN L176 LUSEM DCT LULUT DCT POI/N0426F300 DCT PEPAX UT182 KEPER |
| Aircraft | A320/M-SDE3FGHIRWY/LB1 |
Departure
| Time | 2026-05-05 09:40 |
|---|---|
| Airport | Bilbao Airport (LEBB) |
Arrival
| Time | 2026-05-05 10:54 |
|---|---|
| Airport | Charles de Gaulle International Airport (LFPG) |
| Time | Latitude | Longitude | Altitude | Speed | Heading |
|---|---|---|---|---|---|
| 2026-05-05 09:13 | 43.30409 | -2.90575 | 128 ft | 0 kts | 26° |
| 2026-05-05 09:31 | 43.30391 | -2.90588 | 122 ft | 4 kts | 26° |
| 2026-05-05 09:32 | 43.30367 | -2.90605 | 123 ft | 3 kts | 26° |
| 2026-05-05 09:32 | 43.30348 | -2.90615 | 123 ft | 4 kts | 355° |
| 2026-05-05 09:32 | 43.30326 | -2.90601 | 123 ft | 4 kts | 322° |
| 2026-05-05 09:32 | 43.30319 | -2.90594 | 124 ft | 0 kts | 327° |
| 2026-05-05 09:35 | 43.30323 | -2.90598 | 125 ft | 2 kts | 327° |
| 2026-05-05 09:35 | 43.30338 | -2.90616 | 123 ft | 4 kts | 310° |
| 2026-05-05 09:36 | 43.30355 | -2.90658 | 123 ft | 6 kts | 296° |
| 2026-05-05 09:36 | 43.30376 | -2.90721 | 126 ft | 8 kts | 296° |
| 2026-05-05 09:36 | 43.30406 | -2.90802 | 126 ft | 11 kts | 290° |
| 2026-05-05 09:36 | 43.30404 | -2.90913 | 127 ft | 13 kts | 266° |
| 2026-05-05 09:37 | 43.30353 | -2.91002 | 124 ft | 14 kts | 206° |
| 2026-05-05 09:37 | 43.30270 | -2.90987 | 125 ft | 13 kts | 123° |
| 2026-05-05 09:37 | 43.30226 | -2.90867 | 125 ft | 15 kts | 118° |
| 2026-05-05 09:37 | 43.30176 | -2.90732 | 125 ft | 17 kts | 116° |
| 2026-05-05 09:38 | 43.30121 | -2.90582 | 128 ft | 18 kts | 117° |
| 2026-05-05 09:38 | 43.30061 | -2.90416 | 126 ft | 20 kts | 116° |
| 2026-05-05 09:38 | 43.29993 | -2.90235 | 127 ft | 22 kts | 118° |
| 2026-05-05 09:38 | 43.29921 | -2.90036 | 125 ft | 24 kts | 115° |
| 2026-05-05 09:39 | 43.29842 | -2.89821 | 125 ft | 26 kts | 117° |
| 2026-05-05 09:39 | 43.29770 | -2.89626 | 125 ft | 17 kts | 115° |
| 2026-05-05 09:39 | 43.29684 | -2.89629 | 128 ft | 16 kts | 233° |
| 2026-05-05 09:39 | 43.29645 | -2.89783 | 127 ft | 21 kts | 281° |
| 2026-05-05 09:40 | 43.29744 | -2.90057 | 125 ft | 58 kts | 296° |
| 2026-05-05 09:40 | 43.30014 | -2.90799 | 124 ft | 115 kts | 296° |
| 2026-05-05 09:40 | 43.30447 | -2.91966 | 198 ft | 153 kts | 297° |
| 2026-05-05 09:40 | 43.30945 | -2.93260 | 843 ft | 152 kts | 298° |
| 2026-05-05 09:41 | 43.31447 | -2.94575 | 1419 ft | 159 kts | 298° |
| 2026-05-05 09:41 | 43.31975 | -2.95947 | 1858 ft | 169 kts | 298° |
| 2026-05-05 09:41 | 43.32547 | -2.97433 | 2258 ft | 183 kts | 301° |
| 2026-05-05 09:41 | 43.33498 | -2.98683 | 2635 ft | 201 kts | 327° |
| 2026-05-05 09:42 | 43.34673 | -2.99826 | 3203 ft | 211 kts | 319° |
| 2026-05-05 09:42 | 43.35755 | -3.01199 | 4053 ft | 212 kts | 315° |
| 2026-05-05 09:42 | 43.36808 | -3.02624 | 4950 ft | 212 kts | 314° |
| 2026-05-05 09:42 | 43.37867 | -3.04056 | 5753 ft | 215 kts | 315° |
| 2026-05-05 09:43 | 43.38949 | -3.05500 | 6505 ft | 219 kts | 313° |
| 2026-05-05 09:43 | 43.40171 | -3.06810 | 7151 ft | 236 kts | 335° |
| 2026-05-05 09:43 | 43.41266 | -3.07091 | 7551 ft | 251 kts | 1° |
| 2026-05-05 09:43 | 43.42927 | -3.06237 | 8296 ft | 266 kts | 37° |
| 2026-05-05 09:44 | 43.43992 | -3.04158 | 9101 ft | 272 kts | 69° |
| 2026-05-05 09:44 | 43.44506 | -3.01633 | 9919 ft | 276 kts | 74° |
| 2026-05-05 09:44 | 43.45355 | -2.99286 | 10653 ft | 278 kts | 51° |
| 2026-05-05 09:44 | 43.46678 | -2.97360 | 11425 ft | 279 kts | 39° |
| 2026-05-05 09:45 | 43.48169 | -2.95622 | 12139 ft | 283 kts | 40° |
| 2026-05-05 09:45 | 43.49588 | -2.93721 | 12881 ft | 286 kts | 53° |
| 2026-05-05 09:45 | 43.50491 | -2.91268 | 13587 ft | 290 kts | 75° |
| 2026-05-05 09:45 | 43.50716 | -2.88473 | 14003 ft | 304 kts | 97° |
| 2026-05-05 09:46 | 43.50144 | -2.85642 | 14417 ft | 312 kts | 116° |
| 2026-05-05 09:46 | 43.49241 | -2.82915 | 15056 ft | 314 kts | 117° |
| 2026-05-05 09:46 | 43.48330 | -2.80151 | 15669 ft | 319 kts | 116° |
| 2026-05-05 09:46 | 43.47417 | -2.77361 | 16302 ft | 322 kts | 116° |
| 2026-05-05 09:47 | 43.45693 | -2.72073 | 17560 ft | 326 kts | 116° |
| 2026-05-05 09:47 | 43.43844 | -2.66401 | 18776 ft | 331 kts | 116° |
| 2026-05-05 09:47 | 43.41960 | -2.60660 | 19871 ft | 337 kts | 117° |
| 2026-05-05 09:47 | 43.39893 | -2.54377 | 21061 ft | 342 kts | 116° |
| 2026-05-05 09:48 | 43.37862 | -2.48220 | 22110 ft | 348 kts | 116° |
| 2026-05-05 09:48 | 43.36859 | -2.45179 | 22624 ft | 350 kts | 116° |
| 2026-05-05 09:48 | 43.35849 | -2.42112 | 23134 ft | 353 kts | 116° |
| 2026-05-05 09:48 | 43.34833 | -2.39030 | 23629 ft | 355 kts | 116° |
| 2026-05-05 09:49 | 43.33806 | -2.35929 | 24039 ft | 358 kts | 117° |
| 2026-05-05 09:49 | 43.32767 | -2.32799 | 24447 ft | 361 kts | 117° |
| 2026-05-05 09:49 | 43.31765 | -2.29615 | 24822 ft | 366 kts | 111° |
| 2026-05-05 09:49 | 43.31137 | -2.26213 | 25169 ft | 373 kts | 101° |
| 2026-05-05 09:50 | 43.30974 | -2.22600 | 25293 ft | 387 kts | 91° |
| 2026-05-05 09:50 | 43.31004 | -2.18847 | 25431 ft | 397 kts | 91° |
| 2026-05-05 09:50 | 43.31029 | -2.14997 | 25548 ft | 408 kts | 91° |
| 2026-05-05 09:50 | 43.31047 | -2.11056 | 25674 ft | 418 kts | 92° |
| 2026-05-05 09:51 | 43.31061 | -2.07034 | 25802 ft | 427 kts | 92° |
| 2026-05-05 09:51 | 43.31073 | -2.02905 | 26017 ft | 434 kts | 92° |
| 2026-05-05 09:51 | 43.31083 | -1.98731 | 26349 ft | 437 kts | 92° |
| 2026-05-05 09:51 | 43.31131 | -1.94535 | 26681 ft | 442 kts | 88° |
| 2026-05-05 09:52 | 43.31618 | -1.90398 | 26980 ft | 448 kts | 77° |
| 2026-05-05 09:52 | 43.32685 | -1.86358 | 27266 ft | 454 kts | 65° |
| 2026-05-05 09:52 | 43.34317 | -1.82619 | 27582 ft | 459 kts | 53° |
| 2026-05-05 09:52 | 43.36459 | -1.79348 | 27897 ft | 463 kts | 41° |
| 2026-05-05 09:53 | 43.39008 | -1.76625 | 28201 ft | 465 kts | 34° |
| 2026-05-05 09:53 | 43.41685 | -1.74090 | 28539 ft | 469 kts | 32° |
| 2026-05-05 09:53 | 43.44417 | -1.71623 | 28934 ft | 470 kts | 32° |
| 2026-05-05 09:53 | 43.47184 | -1.69183 | 29288 ft | 472 kts | 31° |
| 2026-05-05 09:54 | 43.49965 | -1.66743 | 29624 ft | 475 kts | 31° |
| 2026-05-05 09:54 | 43.52759 | -1.64273 | 29957 ft | 478 kts | 32° |
| 2026-05-05 09:54 | 43.55563 | -1.61765 | 30239 ft | 481 kts | 32° |
| 2026-05-05 09:54 | 43.58363 | -1.59233 | 30617 ft | 481 kts | 32° |
| 2026-05-05 09:55 | 43.61113 | -1.56725 | 30990 ft | 481 kts | 32° |
| 2026-05-05 09:55 | 43.63908 | -1.54169 | 31408 ft | 481 kts | 32° |
| 2026-05-05 09:55 | 43.66694 | -1.51621 | 31790 ft | 480 kts | 32° |
| 2026-05-05 09:55 | 43.69484 | -1.49071 | 32164 ft | 481 kts | 32° |
| 2026-05-05 09:56 | 43.72282 | -1.46517 | 32543 ft | 482 kts | 32° |
| 2026-05-05 09:56 | 43.75082 | -1.43959 | 32924 ft | 482 kts | 32° |
| 2026-05-05 09:56 | 43.77880 | -1.41400 | 33307 ft | 482 kts | 32° |
| 2026-05-05 09:56 | 43.80678 | -1.38838 | 33698 ft | 482 kts | 32° |
| 2026-05-05 09:57 | 43.83476 | -1.36276 | 33982 ft | 483 kts | 32° |
| 2026-05-05 09:57 | 43.84503 | -1.35335 | 33996 ft | 483 kts | 32° |
| 2026-05-05 09:57 | 43.90115 | -1.30183 | 34019 ft | 483 kts | 32° |
| 2026-05-05 09:58 | 43.95738 | -1.25012 | 34017 ft | 483 kts | 32° |
| 2026-05-05 09:58 | 44.01344 | -1.19846 | 34012 ft | 483 kts | 32° |
| 2026-05-05 09:59 | 44.06899 | -1.14702 | 34003 ft | 481 kts | 32° |
| 2026-05-05 09:59 | 44.12472 | -1.09530 | 33990 ft | 481 kts | 32° |
| 2026-05-05 10:00 | 44.18048 | -1.04353 | 33990 ft | 482 kts | 32° |
| 2026-05-05 10:00 | 44.23606 | -0.99183 | 34018 ft | 482 kts | 33° |
| 2026-05-05 10:01 | 44.29182 | -0.93985 | 34022 ft | 482 kts | 33° |
| 2026-05-05 10:01 | 44.34751 | -0.88765 | 34016 ft | 481 kts | 33° |
| 2026-05-05 10:02 | 44.40397 | -0.83884 | 34010 ft | 479 kts | 23° |
| 2026-05-05 10:02 | 44.46614 | -0.80601 | 34018 ft | 476 kts | 18° |
| 2026-05-05 10:03 | 44.52854 | -0.77464 | 34014 ft | 475 kts | 18° |
| 2026-05-05 10:03 | 44.59034 | -0.74349 | 33988 ft | 474 kts | 18° |
| 2026-05-05 10:04 | 44.65243 | -0.71218 | 33992 ft | 473 kts | 18° |
| 2026-05-05 10:04 | 44.71451 | -0.68090 | 33996 ft | 473 kts | 19° |
| 2026-05-05 10:05 | 44.77612 | -0.64959 | 33994 ft | 473 kts | 19° |
| 2026-05-05 10:05 | 44.83811 | -0.61799 | 33994 ft | 473 kts | 19° |
| 2026-05-05 10:06 | 44.90004 | -0.58650 | 33992 ft | 472 kts | 19° |
| 2026-05-05 10:06 | 44.96157 | -0.55512 | 33991 ft | 472 kts | 19° |
| 2026-05-05 10:07 | 45.02341 | -0.52351 | 33993 ft | 472 kts | 19° |
| 2026-05-05 10:07 | 45.08514 | -0.49187 | 33990 ft | 471 kts | 19° |
| 2026-05-05 10:08 | 45.14689 | -0.46016 | 33986 ft | 471 kts | 19° |
| 2026-05-05 10:08 | 45.20813 | -0.42859 | 33988 ft | 470 kts | 20° |
| 2026-05-05 10:09 | 45.26952 | -0.39683 | 33984 ft | 469 kts | 20° |
| 2026-05-05 10:09 | 45.33051 | -0.36528 | 33978 ft | 468 kts | 20° |
| 2026-05-05 10:10 | 45.39185 | -0.33357 | 33963 ft | 468 kts | 20° |
| 2026-05-05 10:10 | 45.45310 | -0.30187 | 33956 ft | 467 kts | 20° |
| 2026-05-05 10:11 | 45.51413 | -0.27000 | 33935 ft | 467 kts | 20° |
| 2026-05-05 10:11 | 45.57518 | -0.23795 | 33932 ft | 467 kts | 20° |
| 2026-05-05 10:12 | 45.63578 | -0.20621 | 33930 ft | 466 kts | 20° |
| 2026-05-05 10:12 | 45.69670 | -0.17436 | 33933 ft | 466 kts | 20° |
| 2026-05-05 10:13 | 45.75767 | -0.14241 | 33955 ft | 466 kts | 20° |
| 2026-05-05 10:13 | 45.81850 | -0.11038 | 33943 ft | 466 kts | 21° |
| 2026-05-05 10:14 | 45.87945 | -0.07805 | 33937 ft | 465 kts | 21° |
| 2026-05-05 10:14 | 45.93981 | -0.04592 | 33936 ft | 465 kts | 21° |
| 2026-05-05 10:15 | 46.00067 | -0.01371 | 33945 ft | 465 kts | 21° |
| 2026-05-05 10:15 | 46.06103 | 0.01832 | 33925 ft | 464 kts | 21° |
| 2026-05-05 10:16 | 46.12154 | 0.05055 | 33927 ft | 464 kts | 21° |
| 2026-05-05 10:16 | 46.18226 | 0.08301 | 33917 ft | 464 kts | 21° |
| 2026-05-05 10:17 | 46.24289 | 0.11551 | 33920 ft | 464 kts | 21° |
| 2026-05-05 10:17 | 46.30298 | 0.14776 | 33919 ft | 463 kts | 21° |
| 2026-05-05 10:18 | 46.36346 | 0.18028 | 33909 ft | 463 kts | 21° |
| 2026-05-05 10:18 | 46.42389 | 0.21290 | 33909 ft | 462 kts | 22° |
| 2026-05-05 10:19 | 46.48425 | 0.24554 | 33909 ft | 462 kts | 22° |
| 2026-05-05 10:19 | 46.54448 | 0.27823 | 33912 ft | 462 kts | 22° |
| 2026-05-05 10:20 | 46.60551 | 0.30573 | 33908 ft | 463 kts | 13° |
| 2026-05-05 10:20 | 46.66859 | 0.32503 | 33907 ft | 462 kts | 13° |
| 2026-05-05 10:21 | 46.73167 | 0.34433 | 33906 ft | 462 kts | 13° |
| 2026-05-05 10:21 | 46.79467 | 0.36371 | 33900 ft | 462 kts | 13° |
| 2026-05-05 10:22 | 46.85729 | 0.38298 | 33896 ft | 462 kts | 13° |
| 2026-05-05 10:22 | 46.92028 | 0.40243 | 33892 ft | 462 kts | 13° |
| 2026-05-05 10:23 | 46.98303 | 0.42182 | 33860 ft | 462 kts | 14° |
| 2026-05-05 10:23 | 47.04587 | 0.44128 | 33856 ft | 464 kts | 12° |
| 2026-05-05 10:24 | 47.11055 | 0.44518 | 33858 ft | 468 kts | 354° |
| 2026-05-05 10:24 | 47.17503 | 0.42985 | 33856 ft | 469 kts | 351° |
| 2026-05-05 10:25 | 47.23956 | 0.41401 | 33848 ft | 469 kts | 352° |
| 2026-05-05 10:25 | 47.30365 | 0.39838 | 33866 ft | 470 kts | 352° |
| 2026-05-05 10:26 | 47.33618 | 0.39046 | 33613 ft | 473 kts | 352° |
| 2026-05-05 10:26 | 47.36870 | 0.38252 | 33334 ft | 472 kts | 352° |
| 2026-05-05 10:26 | 47.40102 | 0.37462 | 33042 ft | 470 kts | 352° |
| 2026-05-05 10:26 | 47.43329 | 0.36669 | 32769 ft | 468 kts | 353° |
| 2026-05-05 10:27 | 47.46536 | 0.35874 | 32502 ft | 465 kts | 353° |
| 2026-05-05 10:27 | 47.49724 | 0.35081 | 32231 ft | 463 kts | 353° |
| 2026-05-05 10:27 | 47.52849 | 0.34300 | 31964 ft | 460 kts | 353° |
| 2026-05-05 10:27 | 47.56001 | 0.33517 | 31706 ft | 457 kts | 353° |
| 2026-05-05 10:28 | 47.59135 | 0.32741 | 31455 ft | 454 kts | 354° |
| 2026-05-05 10:28 | 47.62232 | 0.31974 | 30974 ft | 450 kts | 353° |
| 2026-05-05 10:28 | 47.65308 | 0.31213 | 30445 ft | 447 kts | 354° |
| 2026-05-05 10:28 | 47.68371 | 0.30452 | 29914 ft | 445 kts | 354° |
| 2026-05-05 10:29 | 47.71418 | 0.29686 | 29342 ft | 441 kts | 354° |
| 2026-05-05 10:29 | 47.74430 | 0.28936 | 28833 ft | 435 kts | 355° |
| 2026-05-05 10:29 | 47.77421 | 0.28706 | 28325 ft | 425 kts | 7° |
| 2026-05-05 10:29 | 47.80278 | 0.29268 | 27826 ft | 415 kts | 17° |
| 2026-05-05 10:30 | 47.82989 | 0.30565 | 27516 ft | 406 kts | 26° |
| 2026-05-05 10:30 | 47.85489 | 0.32504 | 27207 ft | 402 kts | 36° |
| 2026-05-05 10:30 | 47.87780 | 0.34867 | 26893 ft | 400 kts | 38° |
| 2026-05-05 10:30 | 47.89287 | 0.36448 | 26679 ft | 399 kts | 38° |
| 2026-05-05 10:31 | 47.91554 | 0.38826 | 26358 ft | 397 kts | 38° |
| 2026-05-05 10:31 | 47.93807 | 0.41188 | 26040 ft | 394 kts | 38° |
| 2026-05-05 10:31 | 47.96049 | 0.43535 | 25736 ft | 393 kts | 37° |
| 2026-05-05 10:31 | 47.98286 | 0.45877 | 25438 ft | 391 kts | 37° |
| 2026-05-05 10:32 | 48.00515 | 0.48215 | 25129 ft | 389 kts | 37° |
| 2026-05-05 10:32 | 48.02728 | 0.50537 | 24833 ft | 388 kts | 37° |
| 2026-05-05 10:32 | 48.04910 | 0.52832 | 24521 ft | 388 kts | 37° |
| 2026-05-05 10:32 | 48.07118 | 0.55160 | 24226 ft | 386 kts | 37° |
| 2026-05-05 10:33 | 48.09307 | 0.57470 | 23920 ft | 384 kts | 36° |
| 2026-05-05 10:33 | 48.11489 | 0.59772 | 23618 ft | 382 kts | 37° |
| 2026-05-05 10:33 | 48.13651 | 0.62058 | 23313 ft | 380 kts | 36° |
| 2026-05-05 10:33 | 48.15803 | 0.64336 | 23021 ft | 378 kts | 37° |
| 2026-05-05 10:34 | 48.17946 | 0.66612 | 22722 ft | 376 kts | 37° |
| 2026-05-05 10:34 | 48.20077 | 0.68876 | 22423 ft | 374 kts | 37° |
| 2026-05-05 10:34 | 48.22176 | 0.71108 | 22125 ft | 373 kts | 36° |
| 2026-05-05 10:34 | 48.24296 | 0.73362 | 21847 ft | 373 kts | 37° |
| 2026-05-05 10:35 | 48.26409 | 0.75609 | 21558 ft | 371 kts | 37° |
| 2026-05-05 10:35 | 48.28512 | 0.77849 | 21270 ft | 370 kts | 37° |
| 2026-05-05 10:35 | 48.30609 | 0.80084 | 20979 ft | 368 kts | 37° |
| 2026-05-05 10:35 | 48.32659 | 0.82362 | 20703 ft | 365 kts | 41° |
| 2026-05-05 10:36 | 48.34453 | 0.85039 | 20424 ft | 361 kts | 51° |
| 2026-05-05 10:36 | 48.35906 | 0.88053 | 20135 ft | 361 kts | 60° |
| 2026-05-05 10:36 | 48.37092 | 0.91362 | 19851 ft | 359 kts | 64° |
| 2026-05-05 10:36 | 48.38245 | 0.94690 | 19574 ft | 358 kts | 63° |
| 2026-05-05 10:37 | 48.39393 | 0.98016 | 19288 ft | 356 kts | 64° |
| 2026-05-05 10:37 | 48.40532 | 1.01313 | 19030 ft | 354 kts | 64° |
| 2026-05-05 10:37 | 48.41670 | 1.04605 | 18697 ft | 354 kts | 63° |
| 2026-05-05 10:37 | 48.42808 | 1.07904 | 18157 ft | 354 kts | 63° |
| 2026-05-05 10:38 | 48.43937 | 1.11185 | 17547 ft | 353 kts | 64° |
| 2026-05-05 10:38 | 48.45048 | 1.14422 | 17140 ft | 348 kts | 64° |
| 2026-05-05 10:38 | 48.46167 | 1.17683 | 16715 ft | 344 kts | 63° |
| 2026-05-05 10:38 | 48.47250 | 1.20838 | 16297 ft | 342 kts | 64° |
| 2026-05-05 10:39 | 48.48335 | 1.24006 | 15957 ft | 338 kts | 63° |
| 2026-05-05 10:39 | 48.49409 | 1.27143 | 15543 ft | 336 kts | 64° |
| 2026-05-05 10:39 | 48.50472 | 1.30262 | 15205 ft | 333 kts | 64° |
| 2026-05-05 10:39 | 48.51528 | 1.33357 | 14764 ft | 329 kts | 63° |
| 2026-05-05 10:40 | 48.52582 | 1.36420 | 14299 ft | 328 kts | 63° |
| 2026-05-05 10:40 | 48.53627 | 1.39455 | 13805 ft | 321 kts | 63° |
| 2026-05-05 10:40 | 48.54652 | 1.42436 | 12955 ft | 318 kts | 63° |
| 2026-05-05 10:40 | 48.55639 | 1.45320 | 12481 ft | 305 kts | 63° |
| 2026-05-05 10:41 | 48.56636 | 1.48055 | 12067 ft | 292 kts | 56° |
| 2026-05-05 10:41 | 48.57947 | 1.50364 | 11463 ft | 288 kts | 43° |
| 2026-05-05 10:41 | 48.59571 | 1.52118 | 10848 ft | 286 kts | 30° |
| 2026-05-05 10:41 | 48.61346 | 1.53429 | 10399 ft | 278 kts | 28° |
| 2026-05-05 10:42 | 48.64820 | 1.55986 | 10015 ft | 280 kts | 28° |
| 2026-05-05 10:42 | 48.66564 | 1.57280 | 9815 ft | 278 kts | 28° |
| 2026-05-05 10:42 | 48.68301 | 1.58571 | 9609 ft | 277 kts | 28° |
| 2026-05-05 10:43 | 48.70033 | 1.59860 | 9404 ft | 277 kts | 28° |
| 2026-05-05 10:43 | 48.71755 | 1.61144 | 9201 ft | 276 kts | 28° |
| 2026-05-05 10:43 | 48.73461 | 1.62490 | 9009 ft | 274 kts | 34° |
| 2026-05-05 10:43 | 48.74911 | 1.64282 | 8825 ft | 271 kts | 47° |
| 2026-05-05 10:44 | 48.76047 | 1.66534 | 8600 ft | 269 kts | 60° |
| 2026-05-05 10:44 | 48.76940 | 1.69033 | 8378 ft | 267 kts | 62° |
| 2026-05-05 10:44 | 48.77821 | 1.71512 | 8159 ft | 266 kts | 62° |
| 2026-05-05 10:44 | 48.78703 | 1.73979 | 7931 ft | 265 kts | 62° |
| 2026-05-05 10:45 | 48.79582 | 1.76434 | 7725 ft | 264 kts | 61° |
| 2026-05-05 10:45 | 48.80459 | 1.78887 | 7495 ft | 263 kts | 62° |
| 2026-05-05 10:45 | 48.81315 | 1.81298 | 7282 ft | 262 kts | 62° |
| 2026-05-05 10:45 | 48.82176 | 1.83718 | 7078 ft | 260 kts | 62° |
| 2026-05-05 10:46 | 48.83039 | 1.86136 | 6854 ft | 259 kts | 62° |
| 2026-05-05 10:46 | 48.83891 | 1.88522 | 6649 ft | 258 kts | 62° |
| 2026-05-05 10:46 | 48.84744 | 1.90926 | 6442 ft | 257 kts | 63° |
| 2026-05-05 10:46 | 48.85587 | 1.93313 | 6209 ft | 257 kts | 62° |
| 2026-05-05 10:47 | 48.86436 | 1.95708 | 6001 ft | 257 kts | 62° |
| 2026-05-05 10:47 | 48.87283 | 1.98090 | 5780 ft | 256 kts | 61° |
| 2026-05-05 10:47 | 48.88330 | 2.00271 | 5583 ft | 257 kts | 48° |
| 2026-05-05 10:47 | 48.89639 | 2.02141 | 5472 ft | 258 kts | 44° |
| 2026-05-05 10:48 | 48.90961 | 2.03986 | 5294 ft | 257 kts | 45° |
| 2026-05-05 10:48 | 48.92263 | 2.05819 | 5167 ft | 251 kts | 44° |
| 2026-05-05 10:48 | 48.93508 | 2.07574 | 5086 ft | 244 kts | 44° |
| 2026-05-05 10:48 | 48.94751 | 2.09330 | 4978 ft | 241 kts | 44° |
| 2026-05-05 10:49 | 48.95975 | 2.11061 | 4880 ft | 240 kts | 44° |
| 2026-05-05 10:49 | 48.97193 | 2.12785 | 4762 ft | 238 kts | 45° |
| 2026-05-05 10:49 | 48.98403 | 2.14503 | 4668 ft | 238 kts | 44° |
| 2026-05-05 10:49 | 48.99610 | 2.16216 | 4550 ft | 235 kts | 46° |
| 2026-05-05 10:50 | 49.00482 | 2.18235 | 4444 ft | 228 kts | 72° |
| 2026-05-05 10:50 | 49.00720 | 2.20601 | 4273 ft | 230 kts | 84° |
| 2026-05-05 10:50 | 49.00844 | 2.23033 | 4126 ft | 230 kts | 84° |
| 2026-05-05 10:50 | 49.00977 | 2.25489 | 3880 ft | 238 kts | 84° |
| 2026-05-05 10:51 | 49.01122 | 2.28051 | 3578 ft | 244 kts | 84° |
| 2026-05-05 10:51 | 49.01266 | 2.30633 | 3269 ft | 242 kts | 84° |
| 2026-05-05 10:51 | 49.01409 | 2.33176 | 2935 ft | 237 kts | 83° |
| 2026-05-05 10:51 | 49.01549 | 2.35643 | 2614 ft | 230 kts | 82° |
| 2026-05-05 10:52 | 49.01679 | 2.38021 | 2313 ft | 220 kts | 83° |
| 2026-05-05 10:52 | 49.01804 | 2.40289 | 2024 ft | 208 kts | 83° |
| 2026-05-05 10:52 | 49.01918 | 2.42385 | 1760 ft | 190 kts | 83° |
| 2026-05-05 10:52 | 49.02021 | 2.44256 | 1533 ft | 168 kts | 84° |
| 2026-05-05 10:53 | 49.02111 | 2.45899 | 1325 ft | 145 kts | 83° |
| 2026-05-05 10:53 | 49.02192 | 2.47377 | 1104 ft | 136 kts | 82° |
| 2026-05-05 10:53 | 49.02271 | 2.48807 | 918 ft | 134 kts | 81° |
| 2026-05-05 10:53 | 49.02352 | 2.50205 | 770 ft | 134 kts | 81° |
| 2026-05-05 10:54 | 49.02418 | 2.51628 | 549 ft | 135 kts | 75° |
| 2026-05-05 10:54 | 49.02517 | 2.53047 | 382 ft | 134 kts | 82° |
| 2026-05-05 10:54 | 49.02583 | 2.54296 | 360 ft | 91 kts | 84° |
| 2026-05-05 10:54 | 49.02610 | 2.54913 | 361 ft | 44 kts | 87° |
| 2026-05-05 10:55 | 49.02568 | 2.55338 | 361 ft | 38 kts | 114° |
| 2026-05-05 10:55 | 49.02470 | 2.55580 | 357 ft | 22 kts | 144° |
| 2026-05-05 10:55 | 49.02319 | 2.55623 | 361 ft | 23 kts | 177° |
| 2026-05-05 10:55 | 49.02155 | 2.55647 | 359 ft | 21 kts | 173° |
| 2026-05-05 10:56 | 49.02081 | 2.55791 | 356 ft | 20 kts | 92° |
| 2026-05-05 10:56 | 49.02091 | 2.56015 | 363 ft | 22 kts | 85° |
| 2026-05-05 10:56 | 49.02087 | 2.56259 | 359 ft | 24 kts | 116° |
| 2026-05-05 10:56 | 49.02028 | 2.56488 | 360 ft | 24 kts | 85° |
| 2026-05-05 10:57 | 49.02041 | 2.56754 | 354 ft | 26 kts | 86° |
| 2026-05-05 10:57 | 49.02055 | 2.56991 | 354 ft | 19 kts | 86° |
| 2026-05-05 10:57 | 49.02067 | 2.57205 | 356 ft | 21 kts | 86° |
| 2026-05-05 10:57 | 49.02079 | 2.57444 | 358 ft | 24 kts | 85° |
| 2026-05-05 10:58 | 49.02089 | 2.57702 | 354 ft | 24 kts | 89° |
| 2026-05-05 10:58 | 49.02001 | 2.57843 | 361 ft | 19 kts | 167° |
| 2026-05-05 10:58 | 49.01889 | 2.57962 | 359 ft | 21 kts | 156° |
| 2026-05-05 10:58 | 49.01740 | 2.57998 | 354 ft | 23 kts | 177° |
| 2026-05-05 10:59 | 49.01577 | 2.58019 | 362 ft | 25 kts | 175° |
| 2026-05-05 10:59 | 49.01398 | 2.58041 | 354 ft | 27 kts | 175° |
| 2026-05-05 10:59 | 49.01202 | 2.58065 | 361 ft | 30 kts | 176° |
| 2026-05-05 10:59 | 49.00999 | 2.58090 | 354 ft | 23 kts | 175° |
| 2026-05-05 11:00 | 49.00903 | 2.57991 | 357 ft | 19 kts | 259° |
| 2026-05-05 11:00 | 49.00892 | 2.57775 | 361 ft | 22 kts | 266° |
| 2026-05-05 11:00 | 49.00879 | 2.57529 | 362 ft | 25 kts | 264° |
| 2026-05-05 11:00 | 49.00862 | 2.57276 | 358 ft | 20 kts | 261° |
| 2026-05-05 11:01 | 49.00797 | 2.57223 | 354 ft | 11 kts | 183° |
| 2026-05-05 11:01 | 49.00716 | 2.57229 | 361 ft | 13 kts | 175° |
| 2026-05-05 11:01 | 49.00662 | 2.57135 | 361 ft | 14 kts | 253° |
| 2026-05-05 11:01 | 49.00638 | 2.56983 | 356 ft | 16 kts | 259° |
| 2026-05-05 11:02 | 49.00625 | 2.56806 | 359 ft | 13 kts | 265° |
| 2026-05-05 11:02 | 49.00603 | 2.56734 | 360 ft | 6 kts | 188° |
| 2026-05-05 11:02 | 49.00570 | 2.56735 | 358 ft | 4 kts | 175° |
| 2026-05-05 11:02 | 49.00565 | 2.56736 | 359 ft | 0 kts | 175° |
| 2026-05-05 11:04 | 49.00566 | 2.56736 | 359 ft | 0 kts | 175° |